Time;durP1;ratioP1;P1;durP2;ratioP2;P2;SDS_P1;SDS_P2;PMS_P1;PMS_P2;Temp;Humidity;BMP_temperature;BMP_pressure;BME280_temperature;BME280_humidity;BME280_pressure;Samples;Min_cycle;Max_cycle;Signal;HPM_P1;HPM_P2
2024/04/16 00:01:38;;;;;;;11.35;4.38;;;5.00;99.90;;;;;;5499213;26;20003;-73
2024/04/16 00:04:04;;;;;;;11.20;4.30;;;5.00;99.90;;;;;;5499625;26;20012;-71
2024/04/16 00:06:30;;;;;;;8.50;4.70;;;5.10;99.90;;;;;;5499886;26;20047;-72
2024/04/16 00:08:56;;;;;;;8.18;4.13;;;5.00;99.90;;;;;;5498647;26;20014;-72
2024/04/16 00:11:21;;;;;;;10.90;4.03;;;5.10;99.90;;;;;;5499986;26;20025;-71
2024/04/16 00:13:47;;;;;;;12.90;3.67;;;5.10;99.90;;;;;;5499713;26;20013;-70
2024/04/16 00:16:13;;;;;;;13.07;4.22;;;5.10;99.90;;;;;;5498846;26;20013;-70
2024/04/16 00:18:38;;;;;;;14.85;3.80;;;5.10;99.90;;;;;;5500217;26;19998;-71
2024/04/16 00:21:04;;;;;;;16.00;4.57;;;5.10;99.90;;;;;;5499230;26;20013;-71
2024/04/16 00:23:30;;;;;;;7.50;3.70;;;5.10;99.90;;;;;;5499221;26;19994;-71
2024/04/16 00:25:55;;;;;;;9.00;3.75;;;5.10;99.90;;;;;;5500055;26;20002;-74
2024/04/16 00:28:21;;;;;;;10.27;4.05;;;5.20;99.90;;;;;;5497424;26;20008;-72
2024/04/16 00:30:46;;;;;;;10.27;3.95;;;5.20;99.90;;;;;;5500160;26;20009;-72
2024/04/16 00:33:12;;;;;;;11.35;3.85;;;5.20;99.90;;;;;;5498661;26;20028;-71
2024/04/16 00:35:42;;;;;;;7.78;3.53;;;5.20;99.90;;;;;;5499021;26;20018;-72
2024/04/16 00:38:08;;;;;;;6.72;3.20;;;5.30;99.90;;;;;;5499830;26;19998;-72
2024/04/16 00:40:34;;;;;;;8.88;3.40;;;5.30;99.90;;;;;;5495587;26;20006;-73
2024/04/16 00:43:00;;;;;;;7.18;3.28;;;5.30;99.90;;;;;;5498247;26;20001;-72
2024/04/16 00:45:26;;;;;;;6.97;3.35;;;5.30;99.90;;;;;;5499707;26;20458;-72
2024/04/16 00:47:53;;;;;;;7.93;3.10;;;5.30;99.90;;;;;;5495826;26;20375;-73
2024/04/16 00:50:19;;;;;;;7.43;3.72;;;5.30;99.90;;;;;;5498001;26;20082;-71
2024/04/16 00:52:45;;;;;;;9.63;4.03;;;5.40;99.90;;;;;;5499710;26;20014;-74
2024/04/16 00:55:11;;;;;;;14.95;4.10;;;5.40;99.90;;;;;;5496317;26;20327;-72
2024/04/16 00:57:38;;;;;;;6.85;3.60;;;5.40;99.90;;;;;;5498058;26;19999;-71
2024/04/16 01:00:04;;;;;;;10.35;2.92;;;5.40;99.90;;;;;;5498106;26;20003;-71
2024/04/16 01:02:30;;;;;;;7.13;3.25;;;5.40;99.90;;;;;;5498194;26;19998;-72
2024/04/16 01:04:56;;;;;;;10.38;3.38;;;5.40;99.90;;;;;;5498968;26;20013;-72
2024/04/16 01:07:24;;;;;;;10.30;2.65;;;5.40;99.90;;;;;;5499300;26;20002;-73
2024/04/16 01:09:49;;;;;;;6.88;2.97;;;5.40;99.90;;;;;;5497438;26;20022;-70
2024/04/16 01:12:15;;;;;;;7.05;3.47;;;5.30;99.90;;;;;;5499289;26;20055;-71
2024/04/16 01:14:40;;;;;;;12.07;3.47;;;5.40;99.90;;;;;;5498366;26;20009;-71
2024/04/16 01:17:07;;;;;;;6.55;3.15;;;5.30;99.90;;;;;;5495666;26;20017;-71
2024/04/16 01:19:32;;;;;;;11.10;2.97;;;5.40;99.90;;;;;;5499310;26;20018;-73
2024/04/16 01:21:58;;;;;;;7.97;3.40;;;5.40;99.90;;;;;;5496529;26;20006;-73
2024/04/16 01:24:23;;;;;;;10.27;3.95;;;5.40;99.90;;;;;;5498322;26;20444;-72
2024/04/16 01:26:50;;;;;;;5.65;2.85;;;5.40;99.90;;;;;;5499305;26;20010;-72
2024/04/16 01:29:15;;;;;;;6.80;3.38;;;5.40;99.90;;;;;;5497545;26;20006;-72
2024/04/16 01:31:41;;;;;;;6.65;3.08;;;5.40;99.90;;;;;;5495045;26;20010;-70
2024/04/16 01:34:07;;;;;;;7.88;2.70;;;5.40;99.90;;;;;;5498753;26;20009;-71
2024/04/16 01:36:32;;;;;;;6.60;3.00;;;5.40;99.90;;;;;;5497920;26;19998;-70
2024/04/16 01:38:58;;;;;;;5.40;2.50;;;5.40;99.90;;;;;;5497830;26;20006;-70
2024/04/16 01:41:24;;;;;;;4.60;2.30;;;5.40;99.90;;;;;;5498983;26;20002;-71
2024/04/16 01:43:49;;;;;;;5.05;2.30;;;5.40;99.90;;;;;;5492276;26;19990;-73
2024/04/16 01:46:15;;;;;;;3.20;1.60;;;5.40;99.90;;;;;;5496956;26;19994;-72
2024/04/16 01:48:40;;;;;;;4.28;2.20;;;5.40;99.90;;;;;;5498891;26;20001;-72
2024/04/16 01:51:06;;;;;;;4.00;1.50;;;5.30;99.90;;;;;;5496692;26;19990;-73
2024/04/16 01:53:31;;;;;;;3.55;1.58;;;5.20;99.90;;;;;;5497813;26;19998;-70
2024/04/16 01:56:00;;;;;;;2.90;1.15;;;5.30;99.90;;;;;;5495951;26;19997;-71
2024/04/16 01:58:25;;;;;;;1.90;1.13;;;5.30;99.90;;;;;;5496137;26;20002;-71
2024/04/16 02:00:58;;;;;;;2.90;0.90;;;5.20;99.90;;;;;;5497295;26;20548;-76
2024/04/16 02:03:24;;;;;;;3.07;0.90;;;5.20;99.90;;;;;;5495922;26;20009;-72
2024/04/16 02:05:49;;;;;;;1.95;1.00;;;5.20;99.90;;;;;;5496678;26;20014;-71
2024/04/16 02:08:15;;;;;;;1.90;1.10;;;5.10;99.90;;;;;;5498533;26;20006;-71
2024/04/16 02:10:54;;;;;;;1.50;1.08;;;5.10;99.90;;;;;;5497814;26;20002;-71
2024/04/16 02:13:19;;;;;;;5.88;1.48;;;5.00;99.90;;;;;;5496716;26;20046;-72
2024/04/16 02:15:45;;;;;;;2.63;0.82;;;5.10;99.90;;;;;;5498586;26;20006;-74
2024/04/16 02:18:10;;;;;;;4.70;1.15;;;5.10;99.90;;;;;;5496767;26;20007;-71
2024/04/16 02:20:36;;;;;;;1.75;1.08;;;5.10;99.90;;;;;;5498236;26;20010;-71
2024/04/16 02:23:01;;;;;;;3.13;1.15;;;5.10;99.90;;;;;;5497773;26;20395;-72
2024/04/16 02:25:27;;;;;;;3.63;1.50;;;5.10;99.90;;;;;;5497004;26;20016;-75
2024/04/16 02:27:53;;;;;;;3.38;1.25;;;5.10;99.90;;;;;;5496417;26;20006;-73
2024/04/16 02:30:18;;;;;;;5.32;1.05;;;5.10;99.90;;;;;;5497113;26;20043;-72
2024/04/16 02:32:44;;;;;;;3.65;1.20;;;5.10;99.90;;;;;;5497776;26;20006;-72
2024/04/16 02:35:09;;;;;;;2.60;0.90;;;5.20;99.90;;;;;;5497494;26;20438;-72
2024/04/16 02:37:35;;;;;;;3.72;1.45;;;5.20;99.90;;;;;;5498154;26;20010;-71
2024/04/16 02:40:00;;;;;;;3.75;1.30;;;5.20;99.90;;;;;;5496372;26;20013;-70
2024/04/16 02:42:26;;;;;;;3.90;0.90;;;5.20;99.90;;;;;;5497003;26;20002;-71
2024/04/16 02:44:52;;;;;;;6.55;1.63;;;5.10;99.90;;;;;;5497181;26;20004;-73
2024/04/16 02:47:17;;;;;;;3.53;1.02;;;5.20;99.90;;;;;;5497432;26;20002;-71
2024/04/16 02:49:43;;;;;;;3.05;1.05;;;5.20;99.90;;;;;;5496484;26;20021;-71
2024/04/16 02:52:08;;;;;;;2.80;1.00;;;5.20;99.90;;;;;;5495467;26;19998;-71
2024/04/16 02:54:34;;;;;;;1.90;0.85;;;5.20;99.90;;;;;;5496656;26;20036;-70
2024/04/16 02:57:00;;;;;;;4.07;1.00;;;5.20;99.90;;;;;;5496960;26;20011;-72
2024/04/16 02:59:25;;;;;;;2.03;0.95;;;5.20;99.90;;;;;;5490780;26;20006;-70
2024/04/16 03:01:52;;;;;;;3.03;1.00;;;5.40;99.90;;;;;;5495979;26;20067;-73
2024/04/16 03:04:18;;;;;;;2.20;1.20;;;5.20;99.90;;;;;;5496650;26;20002;-71
2024/04/16 03:06:44;;;;;;;3.75;1.00;;;5.20;99.90;;;;;;5494417;26;20435;-74
2024/04/16 03:09:12;;;;;;;4.68;1.08;;;5.30;99.90;;;;;;5495202;26;20009;-70
2024/04/16 03:11:38;;;;;;;4.97;1.30;;;5.20;99.90;;;;;;5493116;26;20415;-71
2024/04/16 03:14:03;;;;;;;3.40;1.17;;;5.30;99.90;;;;;;5492908;26;20002;-72
2024/04/16 03:16:29;;;;;;;2.65;0.93;;;5.40;99.90;;;;;;5497182;26;20069;-71
2024/04/16 03:18:54;;;;;;;1.65;1.00;;;5.30;99.90;;;;;;5494938;26;20002;-73
2024/04/16 03:21:21;;;;;;;2.08;1.20;;;5.30;99.90;;;;;;5495872;26;20083;-71
2024/04/16 03:23:48;;;;;;;3.95;1.15;;;5.40;99.90;;;;;;5495484;26;20006;-72
2024/04/16 03:26:14;;;;;;;1.65;1.08;;;5.40;99.90;;;;;;5494951;26;20017;-73
2024/04/16 03:28:39;;;;;;;1.98;1.27;;;5.30;99.90;;;;;;5495662;26;20024;-70
2024/04/16 03:31:09;;;;;;;2.33;1.45;;;5.40;99.90;;;;;;5496990;26;20016;-71
2024/04/16 03:33:35;;;;;;;4.13;1.85;;;5.40;99.90;;;;;;5496169;26;20021;-71
2024/04/16 03:36:01;;;;;;;6.03;3.20;;;5.40;99.90;;;;;;5495850;26;20010;-72
2024/04/16 03:38:27;;;;;;;11.13;3.70;;;5.40;99.90;;;;;;5496985;26;20011;-71
2024/04/16 03:41:02;;;;;;;9.02;3.92;;;5.40;99.90;;;;;;5495633;26;20013;-72
2024/04/16 03:43:29;;;;;;;7.00;4.00;;;5.30;99.90;;;;;;5495706;26;20006;-71
2024/04/16 03:45:55;;;;;;;10.07;3.97;;;5.30;99.90;;;;;;5495848;26;19998;-74
2024/04/16 03:48:22;;;;;;;7.57;4.05;;;5.30;99.90;;;;;;5495914;26;20009;-71
2024/04/16 03:50:48;;;;;;;7.03;3.55;;;5.30;99.90;;;;;;5494331;26;20004;-71
2024/04/16 03:53:13;;;;;;;9.25;4.05;;;5.30;99.90;;;;;;5494768;26;19990;-73
2024/04/16 03:55:39;;;;;;;7.07;3.88;;;5.30;99.90;;;;;;5492958;26;20002;-71
2024/04/16 03:58:05;;;;;;;7.90;4.07;;;5.30;99.90;;;;;;5490850;26;20002;-70
2024/04/16 04:03:16;;;;;;;;;;;5.40;99.90;;;;;;5492000;26;20012;-69
2024/04/16 04:05:46;;;;;;;8.57;4.03;;;5.20;99.90;;;;;;5496614;26;20371;-71
2024/04/16 04:08:12;;;;;;;11.65;5.38;;;5.30;99.90;;;;;;5496608;26;20078;-69
2024/04/16 04:10:38;;;;;;;10.15;5.38;;;5.20;99.90;;;;;;5494512;26;20007;-70
2024/04/16 04:13:03;;;;;;;9.35;5.05;;;5.10;99.90;;;;;;5495923;26;20010;-68
2024/04/16 04:15:29;;;;;;;11.27;3.95;;;5.20;99.90;;;;;;5496527;26;20006;-70
2024/04/16 04:17:55;;;;;;;7.32;3.03;;;5.30;99.90;;;;;;5489738;26;19995;-69
2024/04/16 04:20:21;;;;;;;7.00;3.67;;;5.20;99.90;;;;;;5494528;26;20009;-68
2024/04/16 04:22:46;;;;;;;6.03;3.13;;;5.20;99.90;;;;;;5494868;26;20009;-70
2024/04/16 04:25:12;;;;;;;6.47;2.95;;;5.20;99.90;;;;;;5498173;26;20010;-69
2024/04/16 04:27:41;;;;;;;4.55;2.75;;;5.10;99.90;;;;;;5494949;26;20010;-70
2024/04/16 04:30:10;;;;;;;5.63;2.38;;;5.20;99.90;;;;;;5493800;26;20351;-70
2024/04/16 04:32:35;;;;;;;6.00;2.05;;;5.20;99.90;;;;;;5497844;26;20060;-75
2024/04/16 04:35:02;;;;;;;3.63;2.08;;;5.10;99.90;;;;;;5497654;26;20005;-69
2024/04/16 04:37:28;;;;;;;4.57;2.03;;;5.10;99.90;;;;;;5498692;26;20002;-70
2024/04/16 04:39:53;;;;;;;2.35;1.70;;;5.10;99.90;;;;;;5499035;26;20030;-70
2024/04/16 04:42:19;;;;;;;3.50;1.90;;;5.10;99.90;;;;;;5498934;26;19999;-69
2024/04/16 04:44:45;;;;;;;5.88;2.45;;;5.10;99.90;;;;;;5499726;26;20421;-70
2024/04/16 04:47:12;;;;;;;3.67;2.17;;;5.10;99.90;;;;;;5498004;26;20050;-70
2024/04/16 04:49:38;;;;;;;6.57;2.28;;;5.00;99.90;;;;;;5497015;26;20038;-71
2024/04/16 04:52:04;;;;;;;5.22;2.40;;;5.20;99.90;;;;;;5496630;26;20031;-70
2024/04/16 04:54:30;;;;;;;6.82;2.22;;;5.10;99.90;;;;;;5497011;26;20001;-69
2024/04/16 04:56:55;;;;;;;3.63;2.08;;;5.10;99.90;;;;;;5497168;26;20009;-69
2024/04/16 04:59:21;;;;;;;3.50;2.05;;;5.10;99.90;;;;;;5496349;26;19994;-69
2024/04/16 05:01:47;;;;;;;3.75;2.20;;;5.20;99.90;;;;;;5497610;26;20009;-69
2024/04/16 05:04:12;;;;;;;6.90;2.60;;;5.10;99.90;;;;;;5499466;26;20055;-69
2024/04/16 05:06:38;;;;;;;4.93;2.45;;;5.20;99.90;;;;;;5497917;26;20316;-69
2024/04/16 05:09:05;;;;;;;5.75;2.83;;;5.20;99.90;;;;;;5498967;26;20004;-69
2024/04/16 05:11:31;;;;;;;6.88;3.72;;;5.30;99.90;;;;;;5498316;26;20004;-71
2024/04/16 05:13:57;;;;;;;7.75;3.63;;;5.20;99.90;;;;;;5498042;26;19998;-71
2024/04/16 05:16:23;;;;;;;9.02;3.97;;;5.30;99.90;;;;;;5495094;26;20004;-71
2024/04/16 05:18:48;;;;;;;8.18;4.25;;;5.30;99.90;;;;;;5489778;26;19990;-71
2024/04/16 05:21:14;;;;;;;11.80;5.00;;;5.30;99.90;;;;;;5494014;26;20016;-70
2024/04/16 05:23:41;;;;;;;10.00;5.30;;;5.40;99.90;;;;;;5493743;26;20126;-72
2024/04/16 05:26:07;;;;;;;13.52;5.68;;;5.40;99.90;;;;;;5498107;26;20047;-70
2024/04/16 05:28:33;;;;;;;12.80;5.47;;;5.40;99.90;;;;;;5496038;26;19990;-71
2024/04/16 05:31:01;;;;;;;14.40;5.55;;;5.50;99.90;;;;;;5489663;26;20030;-70
2024/04/16 05:33:27;;;;;;;10.70;5.47;;;5.50;99.90;;;;;;5484303;26;20054;-69
2024/04/16 05:35:53;;;;;;;13.40;5.15;;;5.50;99.90;;;;;;5488042;26;20002;-70
2024/04/16 05:38:19;;;;;;;10.98;5.03;;;5.50;99.90;;;;;;5493638;26;20553;-69
2024/04/16 05:40:45;;;;;;;11.07;4.68;;;5.60;99.90;;;;;;5496239;26;20013;-70
2024/04/16 05:43:11;;;;;;;9.38;4.25;;;5.60;99.90;;;;;;5496693;26;20002;-71
2024/04/16 05:45:36;;;;;;;11.23;4.55;;;5.60;99.90;;;;;;5495843;26;20002;-71
2024/04/16 05:48:02;;;;;;;11.82;4.65;;;5.60;99.90;;;;;;5497056;26;20427;-71
2024/04/16 05:50:28;;;;;;;8.73;3.78;;;5.70;99.90;;;;;;5497051;26;20010;-71
2024/04/16 05:52:53;;;;;;;7.63;4.10;;;5.70;99.90;;;;;;5497557;26;20017;-71
2024/04/16 05:55:20;;;;;;;12.55;4.55;;;5.80;99.90;;;;;;5497742;26;20446;-72
2024/04/16 05:57:45;;;;;;;11.70;5.05;;;5.90;99.90;;;;;;5493459;26;19998;-72
2024/04/16 06:00:12;;;;;;;15.77;6.53;;;5.90;99.90;;;;;;5495528;26;19990;-71
2024/04/16 06:02:37;;;;;;;17.30;7.35;;;6.00;99.90;;;;;;5498266;26;20006;-71
2024/04/16 06:05:03;;;;;;;22.40;8.20;;;6.00;99.90;;;;;;5496593;26;20439;-71
2024/04/16 06:07:29;;;;;;;22.40;7.78;;;6.10;99.90;;;;;;5497762;26;20002;-71
2024/04/16 06:09:54;;;;;;;17.83;7.28;;;6.20;99.90;;;;;;5496037;26;20007;-72
2024/04/16 06:12:20;;;;;;;21.98;6.32;;;6.20;99.90;;;;;;5497044;26;20024;-71
2024/04/16 06:14:45;;;;;;;15.68;5.60;;;6.30;99.90;;;;;;5497743;26;20431;-72
2024/04/16 06:17:11;;;;;;;16.20;4.72;;;6.30;99.90;;;;;;5497302;26;19998;-72
2024/04/16 06:19:37;;;;;;;13.50;4.88;;;6.30;99.90;;;;;;5496152;26;20002;-71
2024/04/16 06:22:03;;;;;;;14.63;4.88;;;6.30;99.90;;;;;;5497122;26;20002;-71
2024/04/16 06:24:28;;;;;;;16.63;4.40;;;6.40;99.90;;;;;;5497729;26;20043;-71
2024/04/16 06:26:54;;;;;;;9.25;4.60;;;6.40;99.90;;;;;;5487201;26;19991;-70
2024/04/16 06:29:21;;;;;;;10.93;4.63;;;6.50;99.90;;;;;;5491371;26;19994;-70
2024/04/16 06:31:48;;;;;;;9.70;4.20;;;6.60;99.90;;;;;;5494187;26;20625;-71
2024/04/16 06:34:13;;;;;;;12.70;4.30;;;6.70;99.90;;;;;;5493870;26;19998;-72
2024/04/16 06:36:39;;;;;;;16.25;4.55;;;6.70;99.90;;;;;;5493892;26;19994;-71
2024/04/16 06:39:05;;;;;;;15.20;4.57;;;6.70;99.90;;;;;;5495789;26;20070;-71
2024/04/16 06:41:31;;;;;;;14.20;4.80;;;6.80;99.90;;;;;;5489292;26;20030;-72
2024/04/16 06:43:56;;;;;;;22.27;5.55;;;6.80;99.90;;;;;;5494903;26;20002;-71
2024/04/16 06:46:22;;;;;;;13.38;5.30;;;6.90;99.90;;;;;;5495269;26;20008;-71
2024/04/16 06:48:50;;;;;;;12.88;5.28;;;6.90;99.90;;;;;;5496806;26;19994;-72
2024/04/16 06:51:16;;;;;;;12.65;5.82;;;7.00;99.90;;;;;;5497352;26;20723;-71
2024/04/16 06:53:41;;;;;;;14.50;4.80;;;7.00;99.90;;;;;;5494683;26;20013;-70
2024/04/16 06:56:07;;;;;;;16.90;4.88;;;7.00;99.90;;;;;;5496693;26;20014;-72
2024/04/16 06:58:33;;;;;;;9.50;3.95;;;7.10;99.90;;;;;;5496094;26;20017;-72
2024/04/16 07:00:59;;;;;;;12.57;3.95;;;7.10;99.90;;;;;;5496715;26;20027;-76
2024/04/16 07:03:25;;;;;;;7.57;3.70;;;7.10;99.90;;;;;;5495905;26;19994;-73
2024/04/16 07:05:50;;;;;;;10.77;3.88;;;7.10;99.90;;;;;;5492233;26;20006;-70
2024/04/16 07:08:18;;;;;;;8.15;3.83;;;7.30;99.90;;;;;;5495129;26;19998;-71
2024/04/16 07:10:46;;;;;;;6.28;3.90;;;7.30;99.90;;;;;;5495063;26;20118;-70
2024/04/16 07:13:12;;;;;;;12.23;3.90;;;7.40;99.90;;;;;;5495079;26;20447;-71
2024/04/16 07:15:38;;;;;;;10.10;3.65;;;7.40;99.90;;;;;;5490307;26;20006;-72
2024/04/16 07:18:04;;;;;;;12.52;4.13;;;7.40;99.90;;;;;;5489782;26;19994;-70
2024/04/16 07:20:30;;;;;;;9.05;3.88;;;7.50;99.90;;;;;;5492425;26;20019;-71
2024/04/16 07:22:55;;;;;;;11.07;4.13;;;7.50;99.90;;;;;;5496163;26;20009;-70
2024/04/16 07:25:21;;;;;;;10.35;3.70;;;7.60;99.90;;;;;;5496247;26;20009;-72
2024/04/16 07:27:46;;;;;;;12.15;4.03;;;7.60;99.90;;;;;;5496639;26;20014;-71
2024/04/16 07:30:13;;;;;;;9.13;4.60;;;7.70;99.90;;;;;;5496888;26;20002;-70
2024/04/16 07:32:39;;;;;;;9.00;4.70;;;7.80;99.90;;;;;;5495310;26;20003;-72
2024/04/16 07:35:05;;;;;;;8.60;4.07;;;8.00;99.90;;;;;;5495918;26;19998;-71
2024/04/16 07:37:31;;;;;;;8.15;3.80;;;8.00;99.90;;;;;;5496495;26;20002;-71
2024/04/16 07:39:56;;;;;;;6.88;3.55;;;8.00;99.90;;;;;;5496972;26;20002;-71
2024/04/16 07:42:22;;;;;;;8.32;3.38;;;8.00;99.90;;;;;;5495427;26;20002;-71
2024/04/16 07:44:47;;;;;;;13.10;4.10;;;8.10;99.90;;;;;;5487946;26;20001;-69
2024/04/16 07:47:13;;;;;;;9.20;4.28;;;8.10;99.90;;;;;;5488319;26;21084;-71
2024/04/16 07:49:39;;;;;;;10.68;3.75;;;8.10;99.90;;;;;;5492953;26;20009;-70
2024/04/16 07:52:05;;;;;;;8.60;3.63;;;8.10;99.90;;;;;;5489712;26;19995;-70
2024/04/16 07:54:31;;;;;;;8.63;3.90;;;8.30;99.90;;;;;;5494777;26;19998;-70
2024/04/16 07:56:56;;;;;;;7.90;3.70;;;8.50;99.90;;;;;;5492904;26;20063;-71
2024/04/16 07:59:22;;;;;;;6.65;3.53;;;8.60;99.90;;;;;;5493476;26;20042;-70
2024/04/16 08:01:48;;;;;;;5.97;3.45;;;8.70;99.90;;;;;;5496745;26;20014;-71
2024/04/16 08:04:13;;;;;;;5.70;3.50;;;8.80;99.90;;;;;;5494290;26;20014;-71
2024/04/16 08:06:39;;;;;;;8.40;3.88;;;8.80;99.90;;;;;;5498665;26;20334;-71
2024/04/16 08:09:05;;;;;;;7.93;3.60;;;8.80;99.90;;;;;;5493308;26;20005;-71
2024/04/16 08:11:30;;;;;;;12.60;3.55;;;8.80;99.90;;;;;;5497947;26;19990;-72
2024/04/16 08:13:56;;;;;;;7.97;3.65;;;8.80;99.90;;;;;;5495071;26;20578;-71
2024/04/16 08:16:21;;;;;;;10.50;3.50;;;8.80;99.90;;;;;;5493000;26;20002;-69
2024/04/16 08:18:47;;;;;;;8.30;3.47;;;8.90;99.90;;;;;;5495039;26;20461;-70
2024/04/16 08:21:12;;;;;;;6.00;3.20;;;8.90;99.90;;;;;;5497914;26;20002;-70
2024/04/16 08:23:38;;;;;;;7.13;3.38;;;8.90;99.90;;;;;;5498982;26;20419;-69
2024/04/16 08:26:05;;;;;;;11.88;3.50;;;8.90;99.90;;;;;;5496651;26;20009;-68
2024/04/16 08:28:31;;;;;;;9.02;3.15;;;8.90;99.90;;;;;;5493494;26;20040;-69
2024/04/16 08:30:58;;;;;;;9.07;3.10;;;8.80;99.90;;;;;;5495387;26;19998;-69
2024/04/16 08:33:24;;;;;;;5.57;3.45;;;8.80;99.90;;;;;;5493869;26;19998;-70
2024/04/16 08:35:51;;;;;;;6.85;3.60;;;8.80;99.90;;;;;;5497021;26;20013;-69
2024/04/16 08:38:18;;;;;;;18.27;5.70;;;8.80;99.90;;;;;;5497831;26;20013;-69
2024/04/16 08:40:45;;;;;;;13.88;4.03;;;8.80;99.90;;;;;;5499115;26;20008;-70
2024/04/16 08:43:11;;;;;;;8.15;3.42;;;8.80;99.90;;;;;;5498688;26;20002;-69
2024/04/16 08:45:37;;;;;;;9.02;3.15;;;8.80;99.90;;;;;;5498586;26;19991;-70
2024/04/16 08:48:04;;;;;;;7.47;2.97;;;8.80;99.90;;;;;;5499670;26;20042;-70
2024/04/16 08:50:31;;;;;;;8.65;3.17;;;8.90;99.90;;;;;;5493989;26;19998;-70
2024/04/16 08:52:58;;;;;;;8.82;4.60;;;8.90;99.90;;;;;;5492282;26;20013;-70
2024/04/16 08:55:29;;;;;;;9.20;4.22;;;8.80;99.90;;;;;;5490129;26;20006;-73
2024/04/16 08:57:55;;;;;;;10.25;4.03;;;8.80;99.90;;;;;;5494352;26;19998;-69
2024/04/16 09:00:21;;;;;;;7.15;3.78;;;8.70;99.90;;;;;;5495304;26;20030;-70
2024/04/16 09:02:49;;;;;;;8.05;3.55;;;8.70;99.90;;;;;;5499024;26;19998;-70
2024/04/16 09:05:16;;;;;;;7.85;3.72;;;8.70;99.90;;;;;;5493770;26;19994;-70
2024/04/16 09:07:42;;;;;;;6.30;3.45;;;8.80;99.90;;;;;;5489587;26;20006;-69
2024/04/16 09:10:12;;;;;;;6.63;3.83;;;8.80;99.90;;;;;;5492472;26;20056;-70
2024/04/16 09:12:41;;;;;;;8.88;3.45;;;8.90;99.90;;;;;;5497391;26;20016;-73
2024/04/16 09:15:07;;;;;;;5.82;3.08;;;9.00;99.90;;;;;;5487837;26;20311;-69
2024/04/16 09:17:33;;;;;;;8.73;3.75;;;9.00;99.90;;;;;;5494395;26;20009;-71
2024/04/16 09:20:02;;;;;;;8.80;3.85;;;9.10;99.90;;;;;;5497417;26;20010;-70
2024/04/16 09:22:30;;;;;;;9.48;3.60;;;9.10;99.90;;;;;;5498077;26;20026;-70
2024/04/16 09:25:07;;;;;;;9.32;4.18;;;9.20;99.90;;;;;;5494316;26;20047;-70
2024/04/16 09:27:33;;;;;;;8.48;4.30;;;9.30;99.90;;;;;;5494653;26;20009;-71
2024/04/16 09:30:11;;;;;;;8.15;4.40;;;9.40;99.90;;;;;;5490429;26;20966;-70
2024/04/16 09:32:37;;;;;;;8.18;4.13;;;9.50;99.90;;;;;;5495421;26;20405;-70
2024/04/16 09:35:04;;;;;;;7.82;4.20;;;9.70;99.90;;;;;;5481242;26;20063;-70
2024/04/16 09:37:29;;;;;;;9.93;4.57;;;10.10;99.90;;;;;;5497108;26;20009;-71
2024/04/16 09:39:58;;;;;;;9.55;4.53;;;10.40;99.90;;;;;;5495631;26;19994;-70
2024/04/16 09:42:25;;;;;;;7.78;4.72;;;10.50;99.90;;;;;;5493602;26;20038;-70
2024/04/16 09:44:56;;;;;;;8.10;4.35;;;10.60;99.90;;;;;;5490321;26;20035;-72
2024/04/16 09:47:24;;;;;;;8.90;4.55;;;10.90;99.90;;;;;;5483213;26;20363;-70
2024/04/16 09:49:54;;;;;;;8.80;4.72;;;11.20;99.90;;;;;;5491299;26;20018;-70
2024/04/16 09:52:20;;;;;;;8.32;4.50;;;11.20;99.90;;;;;;5494282;26;20463;-71
2024/04/16 09:54:48;;;;;;;7.43;4.63;;;11.20;99.90;;;;;;5495566;26;20095;-70
2024/04/16 09:57:15;;;;;;;8.68;5.10;;;11.20;99.90;;;;;;5496093;26;20043;-70
2024/04/16 09:59:41;;;;;;;8.65;4.80;;;11.10;99.90;;;;;;5494459;26;20017;-71
2024/04/16 10:02:12;;;;;;;8.55;4.50;;;11.10;99.90;;;;;;5487983;26;19990;-70
2024/04/16 10:04:38;;;;;;;8.35;5.00;;;11.10;99.90;;;;;;5490976;26;20014;-71
2024/04/16 10:07:04;;;;;;;8.23;5.30;;;11.20;99.90;;;;;;5491283;26;19994;-70
2024/04/16 10:09:30;;;;;;;9.02;5.05;;;11.00;99.90;;;;;;5488966;26;20124;-70
2024/04/16 10:11:56;;;;;;;8.13;4.60;;;10.90;99.90;;;;;;5488593;26;20046;-70
2024/04/16 10:14:23;;;;;;;10.25;5.25;;;10.90;99.90;;;;;;5493524;26;20138;-71
2024/04/16 10:16:50;;;;;;;7.57;4.72;;;10.90;99.90;;;;;;5497009;26;20034;-71
2024/04/16 10:19:17;;;;;;;8.68;4.55;;;10.90;99.90;;;;;;5496762;26;20036;-71
2024/04/16 10:21:47;;;;;;;9.40;4.88;;;10.90;99.90;;;;;;5495691;26;20002;-71
2024/04/16 10:24:16;;;;;;;7.55;4.38;;;10.80;99.90;;;;;;5497885;26;20013;-71
2024/04/16 10:26:44;;;;;;;6.15;4.07;;;10.90;99.90;;;;;;5496124;26;20026;-71
2024/04/16 10:29:14;;;;;;;8.38;4.03;;;10.90;99.90;;;;;;5498151;26;20009;-71
2024/04/16 10:31:40;;;;;;;5.63;3.25;;;10.90;99.90;;;;;;5496688;26;20439;-72
2024/04/16 10:34:06;;;;;;;8.05;3.50;;;10.80;99.90;;;;;;5497277;26;20006;-72
2024/04/16 10:36:35;;;;;;;3.95;2.50;;;10.70;99.90;;;;;;5496725;26;20013;-71
2024/04/16 10:39:16;;;;;;;7.97;3.00;;;10.50;99.90;;;;;;5495205;26;20082;-70
2024/04/16 10:41:57;;;;;;;4.88;2.50;;;10.60;99.90;;;;;;5496089;26;20006;-70
2024/04/16 10:44:23;;;;;;;4.60;2.40;;;10.60;99.90;;;;;;5497322;26;19998;-71
2024/04/16 10:46:52;;;;;;;5.38;2.50;;;10.60;99.90;;;;;;5487394;26;20430;-69
2024/04/16 10:49:26;;;;;;;4.90;2.35;;;10.70;99.90;;;;;;5486467;26;19999;-70
2024/04/16 10:51:53;;;;;;;4.38;2.08;;;10.60;99.90;;;;;;5482313;26;19994;-73
2024/04/16 10:54:20;;;;;;;6.85;2.20;;;10.60;99.90;;;;;;5481844;26;20002;-72
2024/04/16 10:56:49;;;;;;;4.38;2.30;;;10.60;99.90;;;;;;5480698;26;20486;-71
2024/04/16 10:59:17;;;;;;;8.15;2.60;;;11.00;99.90;;;;;;5486105;26;20011;-72
2024/04/16 11:01:43;;;;;;;5.57;2.00;;;11.40;99.90;;;;;;5478544;26;20043;-68
2024/04/16 11:04:13;;;;;;;4.30;2.13;;;11.70;99.90;;;;;;5485623;26;20005;-69
2024/04/16 11:06:42;;;;;;;4.63;2.00;;;11.70;99.90;;;;;;5491940;26;20007;-69
2024/04/16 11:09:10;;;;;;;5.85;2.15;;;12.10;99.90;;;;;;5494742;26;20013;-71
2024/04/16 11:11:38;;;;;;;4.43;1.85;;;12.40;99.90;;;;;;5493939;26;20025;-70
2024/04/16 11:14:06;;;;;;;6.13;1.70;;;12.40;99.90;;;;;;5490874;26;20010;-69
2024/04/16 11:16:32;;;;;;;6.15;1.63;;;12.40;99.90;;;;;;5490627;26;20005;-69
2024/04/16 11:18:59;;;;;;;3.47;1.90;;;12.30;99.90;;;;;;5495437;26;20149;-69
2024/04/16 11:21:29;;;;;;;6.38;1.80;;;12.20;99.90;;;;;;5496405;26;19998;-69
2024/04/16 11:23:58;;;;;;;5.40;2.30;;;12.10;99.90;;;;;;5495878;26;20149;-70
2024/04/16 11:26:24;;;;;;;3.13;1.92;;;12.00;99.90;;;;;;5492208;26;20015;-69
2024/04/16 11:28:50;;;;;;;7.63;1.92;;;11.70;99.90;;;;;;5495130;26;20078;-68
2024/04/16 11:31:19;;;;;;;5.93;1.90;;;11.50;99.90;;;;;;5497629;26;21628;-69
2024/04/16 11:33:45;;;;;;;4.07;2.05;;;11.20;99.90;;;;;;5502933;26;20002;-69
2024/04/16 11:36:11;;;;;;;2.45;1.40;;;11.20;99.90;;;;;;5501094;26;20043;-68
2024/04/16 11:38:40;;;;;;;6.78;1.73;;;11.20;99.90;;;;;;5500397;26;20014;-70
2024/04/16 11:41:06;;;;;;;3.03;1.50;;;11.10;99.90;;;;;;5500150;26;19994;-69
2024/04/16 11:43:32;;;;;;;2.15;1.42;;;10.90;99.90;;;;;;5499704;26;19994;-69
2024/04/16 11:46:00;;;;;;;3.22;1.13;;;10.80;99.90;;;;;;5500933;26;20049;-69
2024/04/16 11:48:25;;;;;;;1.83;1.40;;;10.80;99.90;;;;;;5497618;26;20326;-69
2024/04/16 11:50:51;;;;;;;3.47;1.30;;;10.80;99.90;;;;;;5502606;26;19998;-69
2024/04/16 11:53:17;;;;;;;2.67;1.70;;;10.80;99.90;;;;;;5501361;26;20001;-69
2024/04/16 11:55:45;;;;;;;2.05;1.30;;;10.80;99.90;;;;;;5502865;26;20005;-69
2024/04/16 11:58:11;;;;;;;3.78;1.42;;;10.80;99.90;;;;;;5501012;26;20010;-69
2024/04/16 12:00:40;;;;;;;2.83;1.20;;;10.80;99.90;;;;;;5503156;26;20054;-70
2024/04/16 12:03:09;;;;;;;4.10;0.95;;;10.80;99.90;;;;;;5500226;26;20023;-70
2024/04/16 12:05:36;;;;;;;4.25;1.13;;;10.80;99.90;;;;;;5499457;26;20063;-69
2024/04/16 12:08:02;;;;;;;2.00;1.15;;;10.90;99.90;;;;;;5497068;26;20006;-70
2024/04/16 12:10:29;;;;;;;2.78;0.93;;;11.00;99.90;;;;;;5496488;26;20597;-70
2024/04/16 12:12:54;;;;;;;1.90;0.90;;;11.20;99.90;;;;;;5503480;26;19994;-73
2024/04/16 12:15:20;;;;;;;3.20;1.40;;;11.40;99.90;;;;;;5502692;26;20051;-70
2024/04/16 12:17:45;;;;;;;1.48;1.10;;;11.50;99.90;;;;;;5500664;26;19998;-69
2024/04/16 12:20:11;;;;;;;2.35;1.10;;;11.60;99.90;;;;;;5503263;26;19998;-69
2024/04/16 12:22:37;;;;;;;4.03;0.70;;;12.10;99.90;;;;;;5500969;26;19994;-69
2024/04/16 12:25:04;;;;;;;1.42;0.65;;;12.60;99.90;;;;;;5503838;26;20002;-69
2024/04/16 12:27:30;;;;;;;2.38;0.70;;;13.00;99.90;;;;;;5495904;26;20017;-69
2024/04/16 12:29:56;;;;;;;2.03;1.00;;;13.40;99.90;;;;;;5500367;26;19990;-69
2024/04/16 12:32:21;;;;;;;1.80;0.68;;;13.40;99.90;;;;;;5500487;26;20350;-69
2024/04/16 12:34:47;;;;;;;3.10;0.90;;;13.30;99.90;;;;;;5493539;26;20010;-69
2024/04/16 12:37:12;;;;;;;1.70;0.90;;;13.10;99.90;;;;;;5493813;26;20060;-69
2024/04/16 12:39:38;;;;;;;1.92;1.17;;;12.90;99.90;;;;;;5498809;26;20021;-69
2024/04/16 12:42:04;;;;;;;1.75;1.10;;;12.40;99.90;;;;;;5496933;26;19994;-70
2024/04/16 12:44:29;;;;;;;3.10;1.27;;;12.10;99.90;;;;;;5493158;26;20021;-69
2024/04/16 12:46:55;;;;;;;3.70;1.42;;;11.80;99.90;;;;;;5497268;26;19994;-71
2024/04/16 12:49:23;;;;;;;3.42;1.42;;;11.60;99.90;;;;;;5493106;26;20009;-70
2024/04/16 12:51:49;;;;;;;2.80;1.30;;;11.40;99.90;;;;;;5496306;26;19998;-70